Time;durP1;ratioP1;P1;durP2;ratioP2;P2;SDS_P1;SDS_P2;PMS_P1;PMS_P2;Temp;Humidity;BMP_temperature;BMP_pressure;BME280_temperature;BME280_humidity;BME280_pressure;Samples;Min_cycle;Max_cycle;Signal;HPM_P1;HPM_P2
2022/08/27 00:01:28;;;;;;;2.70;0.90;;;15.90;99.90;;;;;;4989966;28;20408;-76
2022/08/27 00:03:56;;;;;;;1.80;0.80;;;16.10;99.90;;;;;;4990991;28;20392;-76
2022/08/27 00:06:25;;;;;;;5.20;1.10;;;16.10;99.90;;;;;;4990372;28;20401;-76
2022/08/27 00:08:53;;;;;;;2.40;1.00;;;16.40;99.90;;;;;;4990077;28;20861;-76
2022/08/27 00:11:24;;;;;;;4.95;1.40;;;16.50;99.90;;;;;;4990060;28;20384;-76
2022/08/27 00:13:51;;;;;;;2.90;1.00;;;16.90;99.90;;;;;;4978464;28;20409;-76
2022/08/27 00:16:18;;;;;;;3.38;1.20;;;17.30;99.90;;;;;;4989168;28;20399;-77
2022/08/27 00:18:47;;;;;;;3.90;1.08;;;17.60;99.90;;;;;;4990723;28;20420;-77
2022/08/27 00:21:15;;;;;;;3.40;1.10;;;17.70;99.90;;;;;;4990044;28;20888;-77
2022/08/27 00:23:42;;;;;;;11.35;1.30;;;17.50;99.90;;;;;;4990826;28;20792;-77
2022/08/27 00:26:09;;;;;;;3.88;1.10;;;17.40;99.90;;;;;;4991775;28;20756;-78
2022/08/27 00:28:37;;;;;;;4.60;1.10;;;17.50;99.90;;;;;;4993813;28;20416;-76
2022/08/27 00:31:04;;;;;;;3.13;1.20;;;17.60;99.90;;;;;;4993867;28;20431;-78
2022/08/27 00:33:31;;;;;;;2.70;1.10;;;17.50;99.90;;;;;;4994224;28;20388;-79
2022/08/27 00:35:59;;;;;;;3.72;1.00;;;17.60;99.90;;;;;;4993790;28;20857;-78
2022/08/27 00:38:30;;;;;;;2.33;0.90;;;17.70;99.90;;;;;;4995884;28;20496;-79
2022/08/27 00:41:00;;;;;;;2.88;1.00;;;17.70;99.90;;;;;;4996555;28;20397;-79
2022/08/27 00:43:44;;;;;;;1.83;0.90;;;17.80;99.90;;;;;;4996808;28;20393;-79
2022/08/27 00:46:26;;;;;;;2.70;1.40;;;17.90;99.90;;;;;;4995919;28;20388;-76
2022/08/27 00:48:57;;;;;;;3.20;1.25;;;18.10;99.90;;;;;;4982115;28;20396;-78
2022/08/27 00:51:26;;;;;;;2.45;0.90;;;18.30;99.90;;;;;;4997894;28;20408;-77
2022/08/27 00:53:56;;;;;;;2.80;0.90;;;18.30;99.90;;;;;;4996131;28;20417;-77
2022/08/27 00:56:31;;;;;;;3.58;0.70;;;18.40;99.90;;;;;;4992012;28;20397;-76
2022/08/27 00:59:00;;;;;;;2.35;1.00;;;18.70;99.90;;;;;;4994043;28;20459;-77
2022/08/27 01:01:30;;;;;;;2.67;0.98;;;18.70;99.90;;;;;;4995237;28;20443;-74
2022/08/27 01:04:04;;;;;;;1.48;0.80;;;18.80;99.90;;;;;;4995420;28;20396;-77
2022/08/27 01:06:36;;;;;;;1.77;0.80;;;18.90;99.90;;;;;;4998143;28;20401;-83
2022/08/27 01:09:13;;;;;;;1.90;0.80;;;18.90;99.90;;;;;;5001675;28;20389;-76
2022/08/27 01:11:40;;;;;;;2.15;0.65;;;19.10;99.90;;;;;;4981948;28;20381;-77
2022/08/27 01:14:08;;;;;;;2.27;0.50;;;19.00;99.90;;;;;;4989516;28;20392;-75
2022/08/27 01:16:42;;;;;;;2.03;0.60;;;19.00;99.90;;;;;;4996256;28;20400;-78
2022/08/27 01:19:34;;;;;;;1.70;0.70;;;19.20;99.90;;;;;;4998608;28;20409;-77
2022/08/27 01:22:19;;;;;;;0.77;0.50;;;19.50;99.90;;;;;;4975522;28;20384;-78
2022/08/27 01:24:49;;;;;;;1.45;0.60;;;19.90;99.90;;;;;;4997696;28;20404;-74
2022/08/27 01:27:22;;;;;;;1.25;0.60;;;20.20;99.10;;;;;;4995831;28;20373;-77
2022/08/27 01:29:50;;;;;;;2.30;0.55;;;20.20;98.90;;;;;;4997526;28;20385;-77
2022/08/27 01:32:30;;;;;;;3.67;0.38;;;20.00;98.40;;;;;;4993827;28;20388;-77
2022/08/27 01:34:58;;;;;;;0.68;0.30;;;19.80;97.00;;;;;;5001206;28;20413;-78
2022/08/27 01:37:27;;;;;;;1.80;0.40;;;19.70;96.30;;;;;;4998915;28;20381;-77
2022/08/27 01:39:57;;;;;;;0.65;0.50;;;19.60;96.40;;;;;;4996432;28;20404;-76
2022/08/27 01:42:44;;;;;;;1.45;0.70;;;19.90;98.30;;;;;;4995910;28;20388;-80
2022/08/27 01:45:21;;;;;;;1.40;0.75;;;20.70;97.30;;;;;;4993821;28;20472;-75
2022/08/27 01:47:48;;;;;;;1.85;0.65;;;20.90;95.10;;;;;;4992423;28;20459;-77
2022/08/27 01:50:34;;;;;;;0.73;0.50;;;21.20;94.30;;;;;;4992461;28;20393;-77
2022/08/27 01:53:11;;;;;;;1.42;0.52;;;21.30;92.90;;;;;;4992837;28;20499;-78
2022/08/27 01:55:39;;;;;;;1.23;0.50;;;21.60;91.90;;;;;;4986421;28;20466;-77
2022/08/27 01:58:07;;;;;;;1.48;0.60;;;22.30;92.20;;;;;;4978882;28;20413;-78
2022/08/27 02:00:38;;;;;;;1.23;0.53;;;23.30;90.50;;;;;;4992314;28;20899;-81
2022/08/27 02:03:07;;;;;;;0.90;0.40;;;24.10;85.30;;;;;;4992957;28;20377;-75
2022/08/27 02:05:36;;;;;;;1.17;0.50;;;24.30;76.60;;;;;;4996062;28;20402;-76
2022/08/27 02:08:03;;;;;;;0.88;0.40;;;23.70;76.20;;;;;;5003025;28;20748;-75
2022/08/27 02:10:34;;;;;;;1.60;0.50;;;22.70;78.60;;;;;;4992001;28;20407;-77
2022/08/27 02:13:02;;;;;;;1.77;0.60;;;22.40;80.80;;;;;;4985831;28;20889;-78
2022/08/27 02:15:30;;;;;;;2.05;0.52;;;22.00;82.80;;;;;;4983360;28;20380;-77
2022/08/27 02:17:57;;;;;;;1.45;0.52;;;22.30;83.70;;;;;;4990802;28;20808;-79
2022/08/27 02:20:24;;;;;;;2.20;0.60;;;22.80;84.20;;;;;;4990975;28;20471;-77
2022/08/27 02:22:53;;;;;;;1.57;0.57;;;23.20;81.60;;;;;;4990552;28;20392;-78
2022/08/27 02:25:48;;;;;;;1.92;0.60;;;22.70;79.00;;;;;;5003948;28;20408;-73
2022/08/27 02:28:15;;;;;;;0.88;0.32;;;21.90;79.20;;;;;;5001561;28;20385;-78
2022/08/27 02:30:42;;;;;;;1.60;0.45;;;21.00;81.40;;;;;;4993492;28;20760;-77
2022/08/27 02:33:09;;;;;;;2.35;0.80;;;20.50;83.80;;;;;;4992150;28;20438;-77
2022/08/27 02:35:39;;;;;;;1.90;0.52;;;20.10;88.50;;;;;;4992350;28;20760;-76
2022/08/27 02:38:07;;;;;;;1.85;0.50;;;19.90;90.20;;;;;;4991879;28;20404;-76
2022/08/27 02:40:35;;;;;;;2.17;0.60;;;19.80;91.70;;;;;;4992009;28;20380;-76
2022/08/27 02:43:04;;;;;;;0.77;0.40;;;19.60;92.60;;;;;;4991866;28;20849;-77
2022/08/27 02:45:31;;;;;;;0.35;0.35;;;19.00;93.00;;;;;;4992046;28;20881;-77
2022/08/27 02:47:58;;;;;;;0.73;0.40;;;18.30;98.00;;;;;;4992744;28;20775;-77
2022/08/27 02:50:25;;;;;;;0.70;0.28;;;17.90;99.90;;;;;;4991335;28;20416;-77
2022/08/27 02:52:52;;;;;;;0.57;0.40;;;17.50;99.90;;;;;;4991603;28;20901;-76
2022/08/27 02:55:19;;;;;;;0.70;0.38;;;17.10;99.90;;;;;;4991729;28;20405;-75
2022/08/27 02:57:47;;;;;;;0.80;0.50;;;16.90;99.90;;;;;;4991585;28;20392;-76
2022/08/27 03:00:17;;;;;;;1.23;0.50;;;16.60;99.90;;;;;;4990800;28;20397;-76
2022/08/27 03:02:47;;;;;;;2.30;0.80;;;16.40;99.90;;;;;;4991430;28;20381;-76
2022/08/27 03:05:15;;;;;;;0.73;0.50;;;16.30;99.90;;;;;;4991752;28;20459;-76
2022/08/27 03:07:43;;;;;;;1.30;0.80;;;16.10;99.90;;;;;;4992088;28;20729;-77
2022/08/27 03:10:17;;;;;;;1.70;0.77;;;15.90;99.90;;;;;;4992904;28;20498;-77
2022/08/27 03:12:44;;;;;;;3.40;0.80;;;15.90;99.90;;;;;;4988857;28;20485;-76
2022/08/27 03:15:14;;;;;;;2.47;0.90;;;15.80;99.90;;;;;;4981614;28;20789;-76
2022/08/27 03:20:30;;;;;;;3.30;1.25;;;15.70;99.90;;;;;;4992225;28;20431;-77
2022/08/27 03:22:57;;;;;;;4.97;1.20;;;15.90;99.90;;;;;;4991641;28;20407;-75
2022/08/27 03:25:26;;;;;;;2.90;1.70;;;15.90;99.90;;;;;;4991761;28;20384;-76
2022/08/27 03:27:54;;;;;;;2.75;1.50;;;16.00;99.90;;;;;;4988589;28;20392;-76
2022/08/27 03:30:23;;;;;;;2.63;0.93;;;16.10;99.90;;;;;;4992169;28;20377;-77
2022/08/27 03:32:50;;;;;;;2.60;1.00;;;16.20;99.90;;;;;;4990885;28;20388;-77
2022/08/27 03:35:20;;;;;;;3.17;1.00;;;16.20;99.90;;;;;;4991659;28;20384;-77
2022/08/27 03:37:47;;;;;;;1.60;0.75;;;16.20;99.90;;;;;;4991103;28;20745;-77
2022/08/27 03:40:16;;;;;;;1.95;0.70;;;16.40;99.90;;;;;;4992657;28;20397;-77
2022/08/27 03:42:43;;;;;;;1.92;0.90;;;16.60;99.90;;;;;;4992135;28;20377;-77
2022/08/27 03:45:11;;;;;;;3.07;1.00;;;16.90;99.90;;;;;;4990814;28;20420;-75
2022/08/27 03:47:41;;;;;;;2.78;1.05;;;17.20;99.90;;;;;;4991348;28;20471;-76
2022/08/27 03:50:09;;;;;;;2.50;1.00;;;17.30;99.90;;;;;;4991353;28;20406;-77
2022/08/27 03:52:37;;;;;;;2.88;1.30;;;17.30;99.90;;;;;;4990710;28;20407;-76
2022/08/27 03:55:06;;;;;;;3.67;1.20;;;17.20;99.90;;;;;;4973720;28;20400;-78
2022/08/27 03:57:34;;;;;;;3.77;1.37;;;17.30;99.90;;;;;;4991795;28;20377;-78
2022/08/27 04:00:01;;;;;;;3.30;1.30;;;17.30;99.90;;;;;;4992682;28;20454;-78
2022/08/27 04:02:30;;;;;;;2.47;1.40;;;17.30;99.90;;;;;;4994305;28;20459;-77
2022/08/27 04:04:57;;;;;;;3.42;1.23;;;17.40;99.90;;;;;;4994259;28;20407;-75
2022/08/27 04:07:24;;;;;;;3.83;1.40;;;17.50;99.90;;;;;;4992172;28;20393;-80
2022/08/27 04:09:51;;;;;;;4.03;1.35;;;17.70;99.90;;;;;;4977985;28;20410;-77
2022/08/27 04:12:18;;;;;;;3.00;1.20;;;18.00;99.90;;;;;;4994048;28;20475;-77
2022/08/27 04:14:45;;;;;;;4.68;1.60;;;18.30;99.90;;;;;;4993306;28;20403;-76
2022/08/27 04:17:13;;;;;;;2.60;1.30;;;18.70;99.90;;;;;;4977529;28;20412;-78
2022/08/27 04:19:40;;;;;;;3.38;1.30;;;19.60;99.90;;;;;;4994631;28;20451;-75
2022/08/27 04:22:07;;;;;;;1.73;1.10;;;19.60;99.90;;;;;;4995139;28;20445;-77
2022/08/27 04:24:37;;;;;;;4.70;1.58;;;19.60;99.90;;;;;;4993766;28;20853;-76
2022/08/27 04:27:05;;;;;;;3.22;1.13;;;20.70;99.90;;;;;;4994261;28;20765;-76
2022/08/27 04:29:32;;;;;;;5.57;0.98;;;21.90;99.90;;;;;;4994195;28;20907;-76
2022/08/27 04:32:00;;;;;;;2.05;0.95;;;23.10;98.30;;;;;;4994266;28;20933;-76
2022/08/27 04:34:27;;;;;;;1.85;0.90;;;24.00;97.30;;;;;;4991569;28;20484;-75
2022/08/27 04:36:57;;;;;;;3.05;1.00;;;24.30;93.30;;;;;;4995065;28;20392;-76
2022/08/27 04:39:26;;;;;;;1.80;0.82;;;24.30;92.00;;;;;;4999042;28;20420;-77
2022/08/27 04:41:55;;;;;;;1.60;0.77;;;23.20;92.00;;;;;;4998546;28;20389;-76
2022/08/27 04:44:24;;;;;;;2.25;0.73;;;21.50;95.00;;;;;;4995659;28;20385;-77
2022/08/27 04:46:59;;;;;;;2.10;0.70;;;20.10;98.60;;;;;;4994747;28;20381;-76
2022/08/27 04:49:27;;;;;;;1.52;0.70;;;19.30;99.90;;;;;;4992682;28;20424;-76
2022/08/27 04:51:57;;;;;;;1.70;0.70;;;18.70;99.90;;;;;;4994329;28;20380;-76
2022/08/27 04:54:25;;;;;;;2.20;0.70;;;18.20;99.90;;;;;;4994160;28;20389;-76
2022/08/27 04:56:52;;;;;;;1.27;0.60;;;17.90;99.90;;;;;;4975621;28;20580;-75
2022/08/27 04:59:20;;;;;;;1.42;0.60;;;17.60;99.90;;;;;;4943674;28;20420;-76
2022/08/27 05:01:47;;;;;;;1.80;0.60;;;17.50;99.90;;;;;;4993481;28;20947;-77
2022/08/27 05:04:17;;;;;;;0.82;0.52;;;17.30;99.90;;;;;;4993782;28;20400;-76
2022/08/27 05:06:45;;;;;;;0.95;0.60;;;17.10;99.90;;;;;;4993913;28;20396;-75
2022/08/27 05:09:14;;;;;;;0.75;0.50;;;17.00;99.90;;;;;;4993800;28;20388;-76
2022/08/27 05:11:45;;;;;;;2.22;0.60;;;17.00;99.90;;;;;;4992826;28;20718;-76
2022/08/27 05:14:15;;;;;;;1.58;0.70;;;16.80;99.90;;;;;;4993430;28;20380;-76
2022/08/27 05:16:42;;;;;;;2.03;0.70;;;16.80;99.90;;;;;;4994168;28;20844;-77
2022/08/27 05:19:13;;;;;;;2.85;0.70;;;16.80;99.90;;;;;;4976014;28;20405;-76
2022/08/27 05:21:48;;;;;;;1.58;0.73;;;16.80;99.90;;;;;;4976126;28;20369;-76
2022/08/27 05:24:16;;;;;;;1.90;0.80;;;16.70;99.90;;;;;;4993886;28;20864;-75
2022/08/27 05:26:44;;;;;;;3.17;0.77;;;16.70;99.90;;;;;;4993494;28;20476;-76
2022/08/27 05:29:13;;;;;;;2.07;0.90;;;16.60;99.90;;;;;;4993266;28;20397;-75
2022/08/27 05:31:41;;;;;;;4.07;0.90;;;16.60;99.90;;;;;;4992223;28;20389;-76
2022/08/27 05:34:08;;;;;;;2.53;1.20;;;16.60;99.90;;;;;;4992581;28;20424;-76
2022/08/27 05:36:36;;;;;;;2.10;1.05;;;16.60;99.90;;;;;;4992267;28;20412;-76
2022/08/27 05:39:05;;;;;;;1.90;0.88;;;16.60;99.90;;;;;;4992525;28;20893;-75
2022/08/27 05:41:33;;;;;;;2.72;0.70;;;16.60;99.90;;;;;;4992092;28;20392;-75
2022/08/27 05:44:08;;;;;;;1.35;0.60;;;16.70;99.90;;;;;;4992129;28;20781;-77
2022/08/27 05:46:37;;;;;;;1.30;0.70;;;16.70;99.90;;;;;;4992435;28;20387;-77
2022/08/27 05:49:05;;;;;;;1.40;0.60;;;16.80;99.90;;;;;;4992392;28;20488;-76
2022/08/27 05:51:34;;;;;;;2.20;0.80;;;16.90;99.90;;;;;;4992006;28;20388;-76
2022/08/27 05:54:07;;;;;;;1.75;0.75;;;16.80;99.90;;;;;;4992186;28;20877;-76
2022/08/27 05:56:37;;;;;;;1.92;0.70;;;16.80;99.90;;;;;;4991878;28;21298;-76
2022/08/27 06:01:53;;;;;;;0.77;0.50;;;16.80;99.90;;;;;;4991926;28;20376;-75
2022/08/27 06:04:23;;;;;;;2.78;0.70;;;16.80;99.90;;;;;;4992159;28;20381;-77
2022/08/27 06:06:52;;;;;;;2.22;0.60;;;16.80;99.90;;;;;;4991827;28;20392;-75
2022/08/27 06:09:22;;;;;;;1.52;0.63;;;16.80;99.90;;;;;;4992047;28;20377;-76
2022/08/27 06:11:49;;;;;;;1.30;0.70;;;16.80;99.90;;;;;;4992286;28;20387;-75
2022/08/27 06:14:16;;;;;;;1.65;0.55;;;16.80;99.90;;;;;;4977963;28;20386;-76
2022/08/27 06:16:43;;;;;;;0.70;0.55;;;16.70;99.90;;;;;;4991740;28;20935;-76
2022/08/27 06:19:11;;;;;;;1.35;0.50;;;16.60;99.90;;;;;;4991592;28;20416;-76
2022/08/27 06:21:40;;;;;;;2.42;0.60;;;16.50;99.90;;;;;;4991444;28;20379;-76
2022/08/27 06:24:08;;;;;;;1.73;0.70;;;16.40;99.90;;;;;;4991528;28;20416;-76
2022/08/27 06:26:35;;;;;;;3.07;0.60;;;16.30;99.90;;;;;;4991230;28;20369;-76
2022/08/27 06:29:04;;;;;;;1.60;0.70;;;16.20;99.90;;;;;;4991414;28;20405;-76
2022/08/27 06:31:33;;;;;;;1.20;0.65;;;16.10;99.90;;;;;;4973789;28;20761;-76
2022/08/27 06:34:06;;;;;;;2.35;0.80;;;16.00;99.90;;;;;;4991519;28;20512;-76
2022/08/27 06:36:36;;;;;;;1.95;0.60;;;15.90;99.90;;;;;;4991198;28;20412;-77
2022/08/27 06:39:04;;;;;;;0.98;0.60;;;15.80;99.90;;;;;;4991447;28;20491;-76
2022/08/27 06:41:33;;;;;;;2.83;0.70;;;15.70;99.90;;;;;;4990937;28;20404;-76
2022/08/27 06:44:00;;;;;;;2.38;0.70;;;15.70;99.90;;;;;;4991325;28;20393;-77
2022/08/27 06:46:28;;;;;;;1.65;0.60;;;15.60;99.90;;;;;;4991091;28;20392;-77
2022/08/27 06:48:58;;;;;;;2.55;0.80;;;15.60;99.90;;;;;;4991401;28;20495;-76
2022/08/27 06:51:28;;;;;;;3.65;1.40;;;15.50;99.90;;;;;;4991056;28;20383;-76
2022/08/27 06:53:58;;;;;;;2.55;1.13;;;15.60;99.90;;;;;;4990880;28;20463;-76
2022/08/27 06:56:26;;;;;;;2.05;1.00;;;15.60;99.90;;;;;;4991524;28;20943;-76
2022/08/27 06:58:58;;;;;;;3.35;1.20;;;15.70;99.90;;;;;;4990981;28;20408;-76
2022/08/27 07:01:32;;;;;;;2.08;1.50;;;15.70;99.90;;;;;;4990847;28;20377;-76
2022/08/27 07:04:02;;;;;;;3.10;1.70;;;15.80;99.90;;;;;;4990742;28;20415;-76
2022/08/27 07:06:33;;;;;;;3.90;1.70;;;15.70;99.90;;;;;;4990873;28;20397;-76
2022/08/27 07:09:00;;;;;;;2.33;1.10;;;15.70;99.90;;;;;;4990853;28;20389;-75
2022/08/27 07:11:31;;;;;;;1.52;0.60;;;15.60;99.90;;;;;;4990878;28;20369;-76
2022/08/27 07:13:58;;;;;;;1.10;0.50;;;15.60;99.90;;;;;;4978010;28;20391;-77
2022/08/27 07:16:27;;;;;;;2.15;0.60;;;15.50;99.90;;;;;;4990152;28;20377;-76
2022/08/27 07:18:57;;;;;;;1.13;0.40;;;15.30;99.90;;;;;;4991020;28;20908;-76
2022/08/27 07:21:25;;;;;;;1.10;0.45;;;15.20;99.90;;;;;;4991533;28;20398;-75
2022/08/27 07:23:54;;;;;;;1.30;0.50;;;15.20;99.90;;;;;;4989751;28;20447;-78
2022/08/27 07:26:23;;;;;;;2.37;0.80;;;15.10;99.90;;;;;;4987956;28;20381;-77
2022/08/27 07:28:50;;;;;;;2.67;0.73;;;15.00;99.90;;;;;;4991739;28;20790;-76
2022/08/27 07:31:21;;;;;;;1.50;0.70;;;14.90;99.90;;;;;;4992478;28;20734;-77
2022/08/27 07:33:49;;;;;;;1.80;0.60;;;14.90;99.90;;;;;;4991002;28;20373;-75
2022/08/27 07:36:16;;;;;;;1.42;0.50;;;14.90;99.90;;;;;;4994262;28;20481;-75
2022/08/27 07:38:44;;;;;;;3.15;0.88;;;14.90;99.90;;;;;;4975726;28;20781;-77
2022/08/27 07:41:12;;;;;;;1.70;0.80;;;14.80;99.90;;;;;;4994209;28;20392;-77
2022/08/27 07:46:25;;;;;;;2.88;2.58;;;14.70;99.90;;;;;;4993164;28;20543;-79
2022/08/27 07:48:55;;;;;;;2.33;2.00;;;14.60;99.90;;;;;;4995756;28;20385;-79
2022/08/27 07:51:24;;;;;;;7.47;5.70;;;14.40;99.90;;;;;;4991906;28;20392;-77
2022/08/27 07:53:53;;;;;;;20.90;17.87;;;14.30;99.90;;;;;;4997589;28;20384;-81
2022/08/27 07:56:21;;;;;;;12.27;9.45;;;14.20;99.90;;;;;;4996116;28;20403;-83
2022/08/27 07:58:48;;;;;;;1.80;1.17;;;14.20;99.90;;;;;;4994708;28;20448;-81
2022/08/27 08:01:16;;;;;;;3.53;1.40;;;14.10;99.90;;;;;;4993710;28;20392;-80
2022/08/27 08:03:44;;;;;;;2.67;1.30;;;14.00;99.90;;;;;;5010340;28;20389;-79
2022/08/27 08:06:16;;;;;;;1.58;1.10;;;13.80;99.90;;;;;;5009311;28;20408;-79
2022/08/27 08:08:44;;;;;;;2.55;1.02;;;13.70;99.90;;;;;;5009566;28;20465;-76
2022/08/27 08:11:14;;;;;;;1.90;1.00;;;13.60;99.90;;;;;;5006405;28;20407;-83
2022/08/27 08:13:43;;;;;;;3.30;1.43;;;13.50;99.90;;;;;;5017539;28;20385;-81
2022/08/27 08:16:10;;;;;;;3.30;1.50;;;13.50;99.90;;;;;;5003039;28;20376;-83
2022/08/27 08:18:38;;;;;;;2.08;1.35;;;13.50;99.90;;;;;;5015953;28;20480;-83
2022/08/27 08:21:12;;;;;;;1.60;1.10;;;13.40;99.90;;;;;;5002399;28;20954;-81
2022/08/27 08:23:39;;;;;;;2.10;1.10;;;13.40;99.90;;;;;;4998630;28;20392;-80
2022/08/27 08:26:10;;;;;;;4.72;1.60;;;13.30;99.90;;;;;;4998766;28;20425;-83
2022/08/27 08:28:37;;;;;;;8.73;2.60;;;13.20;99.90;;;;;;4980185;28;20479;-84
2022/08/27 08:31:05;;;;;;;10.15;2.47;;;13.20;99.90;;;;;;4997867;28;20926;-80
2022/08/27 08:33:33;;;;;;;7.90;1.92;;;13.10;99.90;;;;;;4999568;28;20447;-80
2022/08/27 08:36:14;;;;;;;6.10;1.42;;;13.10;99.90;;;;;;5001759;28;20392;-78
2022/08/27 08:38:42;;;;;;;6.40;1.27;;;13.10;99.90;;;;;;4999351;28;20404;-77
2022/08/27 08:41:31;;;;;;;5.55;1.30;;;13.00;99.90;;;;;;4978010;28;20827;-83
2022/08/27 08:44:01;;;;;;;5.13;1.90;;;12.90;99.90;;;;;;4997797;28;20393;-78
2022/08/27 08:46:38;;;;;;;9.73;3.92;;;12.80;99.90;;;;;;4994614;28;20817;-79
2022/08/27 08:49:28;;;;;;;9.75;4.78;;;12.80;99.90;;;;;;4995876;28;20393;-82
2022/08/27 08:52:07;;;;;;;8.60;4.80;;;12.70;99.90;;;;;;4990901;28;20389;-79
2022/08/27 08:54:34;;;;;;;7.07;4.47;;;12.70;99.90;;;;;;4990140;28;20393;-78
2022/08/27 08:57:15;;;;;;;6.45;3.50;;;12.70;99.90;;;;;;4995634;28;20891;-81
2022/08/27 08:59:50;;;;;;;6.73;3.30;;;12.60;99.90;;;;;;4989679;28;20413;-81
2022/08/27 09:02:17;;;;;;;4.53;2.70;;;12.50;99.90;;;;;;4996122;28;20792;-84
2022/08/27 09:04:44;;;;;;;4.25;2.58;;;12.50;99.90;;;;;;4997190;28;20483;-83
2022/08/27 09:07:26;;;;;;;5.03;3.17;;;12.40;99.90;;;;;;4996892;28;20376;-80
2022/08/27 09:10:30;;;;;;;4.95;2.80;;;12.40;99.90;;;;;;4994978;28;20420;-82
2022/08/27 09:13:02;;;;;;;4.93;2.90;;;12.40;99.90;;;;;;4991643;28;20412;-80
2022/08/27 09:15:34;;;;;;;3.53;2.35;;;12.30;99.90;;;;;;4994634;28;20397;-81
2022/08/27 09:18:07;;;;;;;3.55;1.70;;;12.20;99.90;;;;;;4995266;28;20423;-80
2022/08/27 09:20:35;;;;;;;2.78;1.90;;;12.30;99.90;;;;;;4995873;28;20434;-80
2022/08/27 09:23:21;;;;;;;4.30;2.10;;;12.10;99.90;;;;;;4995796;28;20810;-81
2022/08/27 09:25:48;;;;;;;2.90;1.85;;;12.10;99.90;;;;;;4995287;28;20397;-81
2022/08/27 09:31:09;;;;;;;3.30;1.63;;;11.90;99.90;;;;;;4994994;28;20439;-81
2022/08/27 09:33:36;;;;;;;4.32;2.00;;;11.90;99.90;;;;;;4995408;28;20385;-82
2022/08/27 09:36:07;;;;;;;2.93;2.03;;;11.90;99.90;;;;;;4977404;28;20779;-81
2022/08/27 09:38:49;;;;;;;2.83;2.00;;;11.80;99.90;;;;;;4994434;28;20416;-82
2022/08/27 09:41:34;;;;;;;4.40;2.85;;;11.80;99.90;;;;;;4994657;28;20385;-84
2022/08/27 09:44:11;;;;;;;5.20;3.20;;;11.70;99.90;;;;;;4995700;28;20456;-82
2022/08/27 09:46:38;;;;;;;6.60;4.30;;;11.70;99.90;;;;;;4995518;28;20381;-84
2022/08/27 09:49:17;;;;;;;4.78;4.10;;;11.70;99.90;;;;;;4992277;28;20411;-83
2022/08/27 09:51:46;;;;;;;6.75;4.35;;;11.60;99.90;;;;;;4992111;28;20908;-82
2022/08/27 09:54:41;;;;;;;6.93;4.20;;;11.60;99.90;;;;;;4995732;28;20479;-86
2022/08/27 09:57:10;;;;;;;6.00;5.15;;;11.60;99.90;;;;;;4884382;29;20957;-84
2022/08/27 09:59:42;;;;;;;10.73;8.33;;;11.60;99.90;;;;;;4898432;29;20436;-84
2022/08/27 10:02:17;;;;;;;8.45;5.70;;;11.50;99.90;;;;;;4897349;29;20401;-85
2022/08/27 10:04:53;;;;;;;8.00;6.68;;;11.40;99.90;;;;;;4898166;29;20413;-85
2022/08/27 10:07:51;;;;;;;19.25;17.35;;;11.40;99.90;;;;;;4889724;29;20408;-86
2022/08/27 10:10:53;;;;;;;16.50;14.80;;;11.40;99.90;;;;;;4897260;29;20385;-85
2022/08/27 10:13:33;;;;;;;9.15;8.18;;;11.40;99.90;;;;;;4893044;29;20400;-83
2022/08/27 10:16:02;;;;;;;12.27;10.93;;;11.40;99.90;;;;;;4896481;29;20482;-88
2022/08/27 10:18:57;;;;;;;18.27;15.73;;;11.50;99.90;;;;;;4897672;29;20512;-82
2022/08/27 10:21:49;;;;;;;17.17;15.18;;;11.50;99.90;;;;;;4895741;29;20393;-87
2022/08/27 10:24:54;;;;;;;39.28;35.05;;;11.60;99.90;;;;;;4893047;29;20456;-88
2022/08/27 10:27:27;;;;;;;36.30;31.55;;;11.60;99.90;;;;;;4864739;29;20902;-82
2022/08/27 10:30:05;;;;;;;39.83;35.67;;;11.60;99.90;;;;;;4877937;29;20720;-83
2022/08/27 10:32:46;;;;;;;60.25;53.85;;;11.60;99.90;;;;;;4864810;29;20531;-83
2022/08/27 10:35:35;;;;;;;32.08;28.83;;;11.60;99.90;;;;;;4876445;29;20409;-86
2022/08/27 10:38:14;;;;;;;46.05;41.50;;;11.70;99.90;;;;;;4877848;29;20418;-83
2022/08/27 10:40:57;;;;;;;32.13;28.80;;;11.70;99.90;;;;;;4882144;29;20426;-87
2022/08/27 10:43:36;;;;;;;12.05;10.75;;;11.70;99.90;;;;;;4894554;29;20486;-89
2022/08/27 10:46:32;;;;;;;13.13;10.83;;;11.70;99.90;;;;;;4878004;29;20832;-88
2022/08/27 10:49:12;;;;;;;13.25;10.60;;;11.70;99.90;;;;;;4871695;29;20442;-88
2022/08/27 10:52:06;;;;;;;12.30;11.10;;;11.70;99.90;;;;;;4891779;29;20905;-85
2022/08/27 10:54:43;;;;;;;11.23;9.90;;;11.80;99.90;;;;;;4878843;29;20410;-87
2022/08/27 10:57:22;;;;;;;10.67;9.57;;;11.80;99.90;;;;;;4882562;29;20401;-84
2022/08/27 11:00:01;;;;;;;11.20;9.73;;;11.70;99.90;;;;;;4889028;29;20840;-85
2022/08/27 11:02:46;;;;;;;13.48;11.18;;;11.70;99.90;;;;;;4877011;29;20480;-84
2022/08/27 11:05:22;;;;;;;12.32;11.02;;;11.70;99.90;;;;;;4994494;28;20405;-85
2022/08/27 11:08:11;;;;;;;12.20;10.90;;;11.70;99.90;;;;;;4996685;28;20439;-83
2022/08/27 11:10:47;;;;;;;14.20;12.25;;;11.70;99.90;;;;;;4991788;28;20397;-80
2022/08/27 11:13:47;;;;;;;12.32;10.93;;;11.70;99.90;;;;;;4991835;28;20407;-83
2022/08/27 11:16:18;;;;;;;15.38;13.77;;;11.60;99.90;;;;;;4984055;28;20877;-83
2022/08/27 11:18:53;;;;;;;35.38;31.63;;;11.60;99.90;;;;;;4992951;28;20417;-83
2022/08/27 11:21:50;;;;;;;40.50;36.17;;;11.60;99.90;;;;;;4994848;28;20488;-93
2022/08/27 11:24:30;;;;;;;44.67;39.83;;;11.60;99.90;;;;;;4993524;28;20463;-83
2022/08/27 11:27:04;;;;;;;46.55;41.58;;;11.50;99.90;;;;;;4994784;28;20947;-83
2022/08/27 11:29:56;;;;;;;21.00;19.00;;;11.50;99.90;;;;;;4976569;28;20397;-87
2022/08/27 11:32:54;;;;;;;16.80;15.10;;;11.50;99.90;;;;;;4992000;28;20439;-88
2022/08/27 11:35:54;;;;;;;14.20;12.90;;;11.50;99.90;;;;;;4917624;29;20403;-91
2022/08/27 11:38:52;;;;;;;15.90;14.27;;;11.50;99.90;;;;;;4935371;29;20407;-88
2022/08/27 11:41:30;;;;;;;12.38;11.25;;;11.40;99.90;;;;;;4920095;29;20407;-88
2022/08/27 11:43:59;;;;;;;12.10;10.97;;;11.40;99.90;;;;;;4919155;29;20395;-88
2022/08/27 11:46:42;;;;;;;11.77;10.63;;;11.40;99.90;;;;;;4919379;29;20423;-94
2022/08/27 11:49:10;;;;;;;16.17;14.57;;;11.30;99.90;;;;;;4911307;29;20769;-86
2022/08/27 11:51:39;;;;;;;13.67;12.37;;;11.30;99.90;;;;;;4924320;29;20507;-90
2022/08/27 11:54:22;;;;;;;12.52;11.32;;;11.30;99.90;;;;;;4919559;29;20395;-85
2022/08/27 11:56:50;;;;;;;12.33;11.13;;;11.30;99.90;;;;;;4919114;29;20447;-91
2022/08/27 11:59:23;;;;;;;12.20;11.00;;;11.30;99.90;;;;;;4921665;29;20516;-95
2022/08/27 12:01:53;;;;;;;11.35;10.20;;;11.30;99.90;;;;;;4922581;29;20403;-92
2022/08/27 12:04:31;;;;;;;14.80;13.32;;;11.30;99.90;;;;;;4920557;29;20400;-86
2022/08/27 12:07:06;;;;;;;14.35;12.60;;;11.30;99.90;;;;;;4908185;29;20397;-94
2022/08/27 12:09:54;;;;;;;15.00;13.50;;;11.30;99.90;;;;;;4918903;29;20392;-89
2022/08/27 12:12:43;;;;;;;18.20;16.42;;;11.30;99.90;;;;;;4963259;28;20444;-89
2022/08/27 12:15:39;;;;;;;18.98;17.17;;;11.30;99.90;;;;;;4980523;28;20764;-89
2022/08/27 12:18:35;;;;;;;19.45;17.55;;;11.30;99.90;;;;;;4998479;28;20400;-86
2022/08/27 12:21:17;;;;;;;18.65;16.95;;;11.30;99.90;;;;;;5004642;28;20400;-85
2022/08/27 12:24:10;;;;;;;18.17;16.48;;;11.30;99.90;;;;;;5008721;28;20377;-89
2022/08/27 12:26:42;;;;;;;16.95;15.25;;;11.30;99.90;;;;;;5000478;28;20408;-87
2022/08/27 12:29:33;;;;;;;17.70;16.10;;;11.20;99.90;;;;;;4995830;28;20931;-83
2022/08/27 12:32:29;;;;;;;19.10;17.35;;;11.10;99.90;;;;;;4994649;28;20403;-89
2022/08/27 12:35:11;;;;;;;18.65;16.92;;;11.20;99.90;;;;;;4977821;28;20373;-88
2022/08/27 12:37:44;;;;;;;19.10;17.23;;;11.10;99.90;;;;;;4984467;28;20475;-92
2022/08/27 12:40:29;;;;;;;25.70;20.27;;;11.10;99.90;;;;;;4993946;28;20407;-89
2022/08/27 12:43:16;;;;;;;22.17;16.98;;;11.00;99.90;;;;;;4976145;28;20485;-88
2022/08/27 12:45:56;;;;;;;21.37;18.20;;;10.90;99.90;;;;;;4993390;28;20420;-85
2022/08/27 12:49:04;;;;;;;22.10;19.85;;;10.90;99.90;;;;;;4974238;28;20404;-91
2022/08/27 12:51:36;;;;;;;16.27;14.73;;;10.80;99.90;;;;;;4902628;29;20396;-84
2022/08/27 12:54:12;;;;;;;16.80;15.10;;;10.70;99.90;;;;;;4911546;29;20399;-86
2022/08/27 12:56:57;;;;;;;15.38;13.77;;;10.60;99.90;;;;;;4902432;29;20433;-90
2022/08/27 12:59:53;;;;;;;13.93;12.60;;;10.60;99.90;;;;;;4914579;29;20415;-90
2022/08/27 13:02:36;;;;;;;14.10;12.88;;;10.50;99.90;;;;;;4899563;29;20405;-91
2022/08/27 13:05:06;;;;;;;11.68;10.68;;;10.60;99.90;;;;;;4913261;29;20419;-87
2022/08/27 13:07:40;;;;;;;11.02;10.00;;;10.70;99.90;;;;;;4908769;29;20506;-87
2022/08/27 13:10:25;;;;;;;11.35;10.35;;;10.80;99.90;;;;;;4895372;29;20546;-87
2022/08/27 13:13:08;;;;;;;10.48;9.57;;;10.80;99.90;;;;;;4913460;29;20782;-87
2022/08/27 13:15:35;;;;;;;10.50;9.60;;;10.80;99.90;;;;;;4912050;29;20497;-87
2022/08/27 13:18:06;;;;;;;13.98;12.68;;;10.70;99.90;;;;;;4905568;29;20601;-88
2022/08/27 13:20:38;;;;;;;20.88;18.70;;;10.70;99.90;;;;;;4906997;29;20878;-88
2022/08/27 13:23:15;;;;;;;31.13;27.80;;;10.60;99.90;;;;;;4908581;29;20400;-90
2022/08/27 13:26:13;;;;;;;16.40;14.90;;;10.50;99.90;;;;;;4909867;29;20464;-88